LFMV/AVN METAR and TAF weather

Enter ICAO airport designator
Station Type Date Time Source
LFMV METAR 2022/01/29 14:00 UTC NOAA

LFMV 291400Z AUTO 35015KT CAVOK 12/M03 Q1030 TEMPO 35025G35KT


Station Type Date Time Source
LFMV Decoded METAR 2022/01/29 14:00 UTC NOAA

Station name not available
Jan 29, 2022 - 09:00 AM EST / 2022.01.29 1400 UTC
Wind: from the N (350 degrees) at 17 MPH (15 KT):0
Visibility: greater than 7 mile(s):0
Temperature: 53 F (12 C)
Dew Point: 26 F (-3 C)
Relative Humidity: 34%
Pressure (altimeter): 30.42 in. Hg (1030 hPa)
ob: LFMV 291400Z AUTO 35015KT CAVOK 12/M03 Q1030 TEMPO 35025G35KT
cycle: 14

Station Type Date Time Source
LFMV TAF 2022/01/29 09:00 UTC NOAA

TAF LFMV 290800Z 2909/3009 36012KT CAVOK
BECMG 2911/2913 36015G25KT
TEMPO 2915/2923 35025G35KT
BECMG 2923/3001 35025G40KT

Example: see airport list